createdAt,value
2022-11-07T00:00:51.980Z,9.95
2022-11-07T00:08:31.892Z,9.82
2022-11-07T00:16:07.997Z,9.60
2022-11-07T00:23:43.404Z,9.90
2022-11-07T00:31:18.970Z,9.52
2022-11-07T00:38:54.758Z,9.88
2022-11-07T00:46:28.458Z,9.20
2022-11-07T00:54:04.775Z,9.60
2022-11-07T01:01:38.605Z,8.63
2022-11-07T01:09:16.587Z,9.57
2022-11-07T01:16:50.715Z,9.13
2022-11-07T01:24:26.000Z,8.33
2022-11-07T01:31:59.925Z,7.20
2022-11-07T01:39:35.077Z,7.70
2022-11-07T01:47:10.864Z,7.43
2022-11-07T01:54:52.538Z,8.32
2022-11-07T02:02:28.128Z,7.53
2022-11-07T02:10:05.541Z,7.10
2022-11-07T02:17:39.673Z,7.18
2022-11-07T02:25:16.789Z,6.90
2022-11-07T02:32:51.687Z,7.00
2022-11-07T02:40:27.759Z,7.28
2022-11-07T02:48:01.962Z,6.13
2022-11-07T02:55:36.995Z,7.23
2022-11-07T03:03:10.884Z,6.72
2022-11-07T03:10:45.959Z,6.53
2022-11-07T03:18:19.705Z,7.32
2022-11-07T03:25:54.765Z,6.50
2022-11-07T03:33:29.145Z,7.00
2022-11-07T03:41:04.446Z,6.32
2022-11-07T03:48:38.288Z,6.18
2022-11-07T03:56:13.914Z,6.25
2022-11-07T04:03:47.565Z,6.53
2022-11-07T04:11:39.960Z,6.63
2022-11-07T04:19:13.565Z,5.93
2022-11-07T04:27:20.904Z,5.90
2022-11-07T04:34:54.585Z,6.00
2022-11-07T04:42:29.604Z,6.25
2022-11-07T04:50:03.371Z,5.57
2022-11-07T04:57:38.421Z,6.68
2022-11-07T05:05:12.777Z,5.60
2022-11-07T05:12:48.217Z,4.90
2022-11-07T05:20:30.885Z,5.38
2022-11-07T05:28:06.329Z,5.50
2022-11-07T05:35:40.324Z,5.60
2022-11-07T05:43:17.049Z,5.33
2022-11-07T05:50:51.107Z,5.55
2022-11-07T05:58:26.235Z,4.40
2022-11-07T06:06:00.326Z,4.97
2022-11-07T06:13:35.371Z,4.07
2022-11-07T06:21:09.087Z,4.82
2022-11-07T06:28:44.136Z,4.32
2022-11-07T06:36:18.229Z,4.75
2022-11-07T06:43:53.388Z,4.70
2022-11-07T06:51:27.367Z,4.03
2022-11-07T06:59:02.488Z,4.13
2022-11-07T07:06:36.149Z,4.00
2022-11-07T07:14:11.898Z,3.75
2022-11-07T07:21:45.685Z,3.55
2022-11-07T07:29:20.784Z,3.20
2022-11-07T07:36:55.047Z,4.10
2022-11-07T07:44:31.121Z,3.43
2022-11-07T07:52:05.235Z,3.42
2022-11-07T07:59:40.311Z,3.30
2022-11-07T08:07:14.232Z,2.95
2022-11-07T08:14:49.274Z,3.92
2022-11-07T08:29:58.096Z,2.50
2022-11-07T08:37:31.967Z,2.10
2022-11-07T08:45:09.925Z,2.47
2022-11-07T08:52:43.646Z,2.38
2022-11-07T09:00:19.428Z,2.10
2022-11-07T09:07:53.109Z,2.20
2022-11-07T09:15:28.135Z,2.05
2022-11-07T09:30:36.923Z,1.70
2022-11-07T09:38:10.656Z,1.65
2022-11-07T09:45:55.064Z,2.00
2022-11-07T09:53:33.030Z,1.77
2022-11-07T10:01:14.535Z,1.58
2022-11-07T10:08:54.559Z,1.85
2022-11-07T10:16:40.540Z,1.63
2022-11-07T10:24:32.171Z,1.35
2022-11-07T10:32:20.042Z,1.80
2022-11-07T10:39:54.158Z,1.60
2022-11-07T10:47:29.532Z,1.47
2022-11-07T10:55:08.759Z,1.80
2022-11-07T11:02:48.310Z,1.40
2022-11-07T11:10:24.471Z,1.45
2022-11-07T11:18:02.771Z,1.50
2022-11-07T11:25:47.239Z,1.58
2022-11-07T11:33:27.041Z,1.30
2022-11-07T11:41:10.948Z,1.42
2022-11-07T11:48:51.880Z,1.55
2022-11-07T11:56:40.220Z,1.20
2022-11-07T12:04:31.488Z,1.20
2022-11-07T12:12:18.708Z,1.50
2022-11-07T12:19:59.870Z,1.40
2022-11-07T12:27:43.906Z,1.45
2022-11-07T12:35:29.280Z,1.20
2022-11-07T12:50:55.837Z,1.42
2022-11-07T12:58:32.434Z,1.70
2022-11-07T13:06:15.591Z,1.27
2022-11-07T13:14:21.117Z,1.35
2022-11-07T13:22:05.382Z,1.38
2022-11-07T13:29:41.296Z,1.25
2022-11-07T13:37:21.585Z,1.52
2022-11-07T13:44:59.221Z,1.00
2022-11-07T13:52:41.734Z,1.55
2022-11-07T14:00:19.564Z,1.90
2022-11-07T14:07:58.988Z,1.38
2022-11-07T14:15:32.820Z,1.80
2022-11-07T14:23:14.353Z,1.33
2022-11-07T14:30:51.842Z,1.35
2022-11-07T14:38:26.961Z,1.25
2022-11-07T14:46:13.187Z,1.55
2022-11-07T14:53:56.752Z,1.60
2022-11-07T15:01:32.124Z,1.23
2022-11-07T15:09:08.980Z,1.90
2022-11-07T15:16:49.442Z,2.05
2022-11-07T15:24:34.992Z,1.77
2022-11-07T15:32:15.301Z,1.77
2022-11-07T15:39:51.204Z,1.90
2022-11-07T15:47:24.838Z,1.95
2022-11-07T15:55:00.188Z,3.30
2022-11-07T16:02:34.085Z,1.92
2022-11-07T16:10:21.526Z,2.03
2022-11-07T16:17:55.206Z,1.90
2022-11-07T16:25:31.921Z,1.92
2022-11-07T16:33:05.953Z,1.92
2022-11-07T16:40:42.057Z,2.13
2022-11-07T16:48:24.889Z,2.22
2022-11-07T16:56:04.157Z,2.30
2022-11-07T17:03:37.939Z,2.28
2022-11-07T17:11:14.663Z,2.22
2022-11-07T17:18:49.386Z,2.33
2022-11-07T17:26:28.068Z,2.08
2022-11-07T17:34:01.758Z,1.83
2022-11-07T17:41:36.833Z,1.83
2022-11-07T17:56:47.107Z,2.10
2022-11-07T18:11:55.762Z,3.20
2022-11-07T18:19:29.711Z,3.63
2022-11-07T18:27:10.129Z,3.63
2022-11-07T18:34:44.210Z,3.53
2022-11-07T18:42:19.286Z,3.72
2022-11-07T18:57:32.870Z,3.78
2022-11-07T19:05:07.669Z,4.03
2022-11-07T19:12:44.501Z,3.72
2022-11-07T19:20:20.205Z,3.63
2022-11-07T19:27:55.290Z,3.28
2022-11-07T19:35:29.604Z,2.95
2022-11-07T19:43:05.461Z,2.80
2022-11-07T19:50:39.400Z,2.75
2022-11-07T19:58:15.976Z,2.80
2022-11-07T20:05:51.207Z,4.18
2022-11-07T20:13:26.601Z,3.30
2022-11-07T20:21:05.401Z,3.40
2022-11-07T20:28:40.938Z,2.72
2022-11-07T20:36:16.767Z,3.35
2022-11-07T20:43:55.434Z,2.83
2022-11-07T20:51:29.783Z,2.65
2022-11-07T20:59:04.832Z,3.37
2022-11-07T21:14:13.859Z,3.10
2022-11-07T21:21:49.414Z,3.30
2022-11-07T21:29:29.265Z,3.42
2022-11-07T21:37:03.717Z,2.80
2022-11-07T21:44:38.742Z,2.33
2022-11-07T21:59:47.385Z,2.03
2022-11-07T22:14:57.211Z,2.72
2022-11-07T22:22:30.960Z,4.22
2022-11-07T22:30:07.223Z,4.45
2022-11-07T22:37:40.877Z,3.50
2022-11-07T22:45:15.994Z,2.78
2022-11-07T22:52:49.678Z,2.38
2022-11-07T23:00:24.614Z,2.05
2022-11-07T23:15:34.283Z,2.08
2022-11-07T23:23:07.868Z,2.03
2022-11-07T23:30:42.972Z,2.13
2022-11-07T23:38:16.867Z,2.10
2022-11-07T23:46:09.642Z,2.03
2022-11-07T23:54:01.297Z,1.70
